sensor_id;sensor_type;location;lat;lon;timestamp;P1;durP1;ratioP1;P2;durP2;ratioP2
76765;SDS011;65707;52.362;6.588;2024-02-28T00:00:52;140.02;;;16.20;;
76765;SDS011;65707;52.362;6.588;2024-02-28T00:03:19;85.90;;;12.77;;
76765;SDS011;65707;52.362;6.588;2024-02-28T00:05:46;182.48;;;15.73;;
76765;SDS011;65707;52.362;6.588;2024-02-28T00:08:13;172.38;;;17.48;;
76765;SDS011;65707;52.362;6.588;2024-02-28T00:10:43;174.73;;;16.40;;
76765;SDS011;65707;52.362;6.588;2024-02-28T00:13:10;168.70;;;16.63;;
76765;SDS011;65707;52.362;6.588;2024-02-28T00:15:36;174.80;;;17.45;;
76765;SDS011;65707;52.362;6.588;2024-02-28T00:18:03;132.25;;;15.48;;
76765;SDS011;65707;52.362;6.588;2024-02-28T00:20:30;116.78;;;13.25;;
76765;SDS011;65707;52.362;6.588;2024-02-28T00:22:57;196.68;;;16.45;;
76765;SDS011;65707;52.362;6.588;2024-02-28T00:25:23;119.78;;;14.90;;
76765;SDS011;65707;52.362;6.588;2024-02-28T00:27:52;119.68;;;15.43;;
76765;SDS011;65707;52.362;6.588;2024-02-28T00:30:18;108.40;;;14.18;;
76765;SDS011;65707;52.362;6.588;2024-02-28T00:32:47;177.82;;;15.02;;
76765;SDS011;65707;52.362;6.588;2024-02-28T00:35:14;172.00;;;15.93;;
76765;SDS011;65707;52.362;6.588;2024-02-28T00:37:41;196.13;;;17.27;;
76765;SDS011;65707;52.362;6.588;2024-02-28T00:40:08;187.50;;;17.20;;
76765;SDS011;65707;52.362;6.588;2024-02-28T00:42:36;118.88;;;15.65;;
76765;SDS011;65707;52.362;6.588;2024-02-28T00:45:04;114.93;;;13.68;;
76765;SDS011;65707;52.362;6.588;2024-02-28T00:47:34;148.63;;;15.40;;
76765;SDS011;65707;52.362;6.588;2024-02-28T00:50:01;153.75;;;15.82;;
76765;SDS011;65707;52.362;6.588;2024-02-28T00:52:29;147.32;;;14.75;;
76765;SDS011;65707;52.362;6.588;2024-02-28T00:54:57;174.82;;;17.00;;
76765;SDS011;65707;52.362;6.588;2024-02-28T00:57:24;182.93;;;16.63;;
76765;SDS011;65707;52.362;6.588;2024-02-28T00:59:51;134.52;;;16.30;;
76765;SDS011;65707;52.362;6.588;2024-02-28T01:02:21;155.60;;;16.75;;
76765;SDS011;65707;52.362;6.588;2024-02-28T01:04:48;170.32;;;18.08;;
76765;SDS011;65707;52.362;6.588;2024-02-28T01:07:14;154.98;;;16.35;;
76765;SDS011;65707;52.362;6.588;2024-02-28T01:09:41;116.20;;;14.80;;
76765;SDS011;65707;52.362;6.588;2024-02-28T01:12:08;120.10;;;15.57;;
76765;SDS011;65707;52.362;6.588;2024-02-28T01:14:34;130.30;;;15.68;;
76765;SDS011;65707;52.362;6.588;2024-02-28T01:17:01;136.25;;;15.65;;
76765;SDS011;65707;52.362;6.588;2024-02-28T01:19:29;166.85;;;16.77;;
76765;SDS011;65707;52.362;6.588;2024-02-28T01:21:56;177.05;;;16.67;;
76765;SDS011;65707;52.362;6.588;2024-02-28T01:24:24;140.35;;;13.93;;
76765;SDS011;65707;52.362;6.588;2024-02-28T01:26:51;113.30;;;13.85;;
76765;SDS011;65707;52.362;6.588;2024-02-28T01:29:17;108.60;;;14.20;;
76765;SDS011;65707;52.362;6.588;2024-02-28T01:31:44;145.88;;;14.77;;
76765;SDS011;65707;52.362;6.588;2024-02-28T01:34:11;111.05;;;14.80;;
76765;SDS011;65707;52.362;6.588;2024-02-28T01:36:39;121.35;;;14.15;;
76765;SDS011;65707;52.362;6.588;2024-02-28T01:39:06;138.38;;;14.88;;
76765;SDS011;65707;52.362;6.588;2024-02-28T01:41:33;125.53;;;14.43;;
76765;SDS011;65707;52.362;6.588;2024-02-28T01:44:00;175.98;;;16.40;;
76765;SDS011;65707;52.362;6.588;2024-02-28T01:46:27;195.18;;;17.77;;
76765;SDS011;65707;52.362;6.588;2024-02-28T01:48:54;164.75;;;15.95;;
76765;SDS011;65707;52.362;6.588;2024-02-28T01:51:22;186.88;;;17.38;;
76765;SDS011;65707;52.362;6.588;2024-02-28T01:53:52;191.88;;;17.60;;
76765;SDS011;65707;52.362;6.588;2024-02-28T01:56:20;118.63;;;14.73;;
76765;SDS011;65707;52.362;6.588;2024-02-28T02:01:17;84.65;;;13.25;;
76765;SDS011;65707;52.362;6.588;2024-02-28T02:03:44;161.98;;;16.52;;
76765;SDS011;65707;52.362;6.588;2024-02-28T02:06:10;163.77;;;16.42;;
76765;SDS011;65707;52.362;6.588;2024-02-28T02:08:37;147.38;;;16.10;;
76765;SDS011;65707;52.362;6.588;2024-02-28T02:11:07;143.40;;;15.43;;
76765;SDS011;65707;52.362;6.588;2024-02-28T02:13:34;139.15;;;15.35;;
76765;SDS011;65707;52.362;6.588;2024-02-28T02:16:01;119.55;;;15.40;;
76765;SDS011;65707;52.362;6.588;2024-02-28T02:18:28;143.70;;;16.00;;
76765;SDS011;65707;52.362;6.588;2024-02-28T02:20:58;113.35;;;15.25;;
76765;SDS011;65707;52.362;6.588;2024-02-28T02:23:32;75.63;;;13.38;;
76765;SDS011;65707;52.362;6.588;2024-02-28T02:25:58;94.40;;;14.55;;
76765;SDS011;65707;52.362;6.588;2024-02-28T02:28:25;135.30;;;16.73;;
76765;SDS011;65707;52.362;6.588;2024-02-28T02:30:52;130.75;;;16.25;;
76765;SDS011;65707;52.362;6.588;2024-02-28T02:33:19;93.78;;;13.90;;
76765;SDS011;65707;52.362;6.588;2024-02-28T02:35:45;95.95;;;14.10;;
76765;SDS011;65707;52.362;6.588;2024-02-28T02:38:12;142.23;;;15.35;;
76765;SDS011;65707;52.362;6.588;2024-02-28T02:40:40;88.50;;;13.40;;
76765;SDS011;65707;52.362;6.588;2024-02-28T02:43:07;106.88;;;15.15;;
76765;SDS011;65707;52.362;6.588;2024-02-28T02:45:34;116.18;;;14.98;;
76765;SDS011;65707;52.362;6.588;2024-02-28T02:48:01;114.15;;;14.48;;
76765;SDS011;65707;52.362;6.588;2024-02-28T02:50:28;131.15;;;16.30;;
76765;SDS011;65707;52.362;6.588;2024-02-28T02:52:54;101.93;;;13.32;;
76765;SDS011;65707;52.362;6.588;2024-02-28T02:55:21;121.57;;;15.50;;
76765;SDS011;65707;52.362;6.588;2024-02-28T02:57:49;130.20;;;15.90;;
76765;SDS011;65707;52.362;6.588;2024-02-28T03:00:16;123.32;;;14.77;;
76765;SDS011;65707;52.362;6.588;2024-02-28T03:02:43;88.43;;;15.85;;
76765;SDS011;65707;52.362;6.588;2024-02-28T03:05:10;104.88;;;14.38;;
76765;SDS011;65707;52.362;6.588;2024-02-28T03:07:36;152.57;;;17.40;;
76765;SDS011;65707;52.362;6.588;2024-02-28T03:10:03;204.50;;;17.75;;
76765;SDS011;65707;52.362;6.588;2024-02-28T03:12:31;86.35;;;15.32;;
76765;SDS011;65707;52.362;6.588;2024-02-28T03:14:59;93.38;;;15.73;;
76765;SDS011;65707;52.362;6.588;2024-02-28T03:17:26;171.80;;;17.92;;
76765;SDS011;65707;52.362;6.588;2024-02-28T03:19:53;103.57;;;16.48;;
76765;SDS011;65707;52.362;6.588;2024-02-28T03:22:20;122.85;;;17.23;;
76765;SDS011;65707;52.362;6.588;2024-02-28T03:24:46;136.73;;;17.20;;
76765;SDS011;65707;52.362;6.588;2024-02-28T03:27:13;143.75;;;17.17;;
76765;SDS011;65707;52.362;6.588;2024-02-28T03:29:40;111.05;;;15.63;;
76765;SDS011;65707;52.362;6.588;2024-02-28T03:32:08;133.30;;;17.08;;
76765;SDS011;65707;52.362;6.588;2024-02-28T03:34:35;122.18;;;17.85;;
76765;SDS011;65707;52.362;6.588;2024-02-28T03:37:01;110.10;;;17.25;;
76765;SDS011;65707;52.362;6.588;2024-02-28T03:39:28;125.22;;;17.98;;
76765;SDS011;65707;52.362;6.588;2024-02-28T03:41:55;170.65;;;19.02;;
76765;SDS011;65707;52.362;6.588;2024-02-28T03:44:21;126.93;;;16.45;;
76765;SDS011;65707;52.362;6.588;2024-02-28T03:46:50;132.82;;;18.70;;
76765;SDS011;65707;52.362;6.588;2024-02-28T03:49:19;108.03;;;16.77;;
76765;SDS011;65707;52.362;6.588;2024-02-28T03:51:45;103.65;;;15.88;;
76765;SDS011;65707;52.362;6.588;2024-02-28T03:54:12;90.53;;;14.35;;
76765;SDS011;65707;52.362;6.588;2024-02-28T03:56:39;126.35;;;16.38;;
76765;SDS011;65707;52.362;6.588;2024-02-28T03:59:05;134.30;;;18.50;;
76765;SDS011;65707;52.362;6.588;2024-02-28T04:01:32;101.22;;;16.48;;
76765;SDS011;65707;52.362;6.588;2024-02-28T04:03:59;104.85;;;16.05;;
76765;SDS011;65707;52.362;6.588;2024-02-28T04:06:27;104.78;;;17.75;;
76765;SDS011;65707;52.362;6.588;2024-02-28T04:08:54;96.20;;;16.77;;
76765;SDS011;65707;52.362;6.588;2024-02-28T04:11:21;95.38;;;17.10;;
76765;SDS011;65707;52.362;6.588;2024-02-28T04:13:47;80.03;;;17.05;;
76765;SDS011;65707;52.362;6.588;2024-02-28T04:16:14;95.55;;;16.50;;
76765;SDS011;65707;52.362;6.588;2024-02-28T04:18:40;106.78;;;18.52;;
76765;SDS011;65707;52.362;6.588;2024-02-28T04:21:08;100.55;;;16.42;;
76765;SDS011;65707;52.362;6.588;2024-02-28T04:23:36;120.60;;;17.42;;
76765;SDS011;65707;52.362;6.588;2024-02-28T04:26:03;146.30;;;17.67;;
76765;SDS011;65707;52.362;6.588;2024-02-28T04:28:30;91.80;;;15.73;;
76765;SDS011;65707;52.362;6.588;2024-02-28T04:30:56;112.18;;;16.88;;
76765;SDS011;65707;52.362;6.588;2024-02-28T04:33:23;135.40;;;17.80;;
76765;SDS011;65707;52.362;6.588;2024-02-28T04:35:50;125.13;;;16.00;;
76765;SDS011;65707;52.362;6.588;2024-02-28T04:38:16;120.63;;;17.57;;
76765;SDS011;65707;52.362;6.588;2024-02-28T04:40:45;113.05;;;16.30;;
76765;SDS011;65707;52.362;6.588;2024-02-28T04:43:11;132.68;;;18.52;;
76765;SDS011;65707;52.362;6.588;2024-02-28T04:45:38;114.68;;;18.20;;
76765;SDS011;65707;52.362;6.588;2024-02-28T04:48:05;100.97;;;17.60;;
76765;SDS011;65707;52.362;6.588;2024-02-28T04:50:33;111.43;;;16.73;;
76765;SDS011;65707;52.362;6.588;2024-02-28T04:52:59;127.88;;;19.55;;
76765;SDS011;65707;52.362;6.588;2024-02-28T04:55:26;93.63;;;17.30;;
76765;SDS011;65707;52.362;6.588;2024-02-28T04:57:55;113.13;;;17.30;;
76765;SDS011;65707;52.362;6.588;2024-02-28T05:00:21;110.97;;;17.92;;
76765;SDS011;65707;52.362;6.588;2024-02-28T05:02:48;130.27;;;17.83;;
76765;SDS011;65707;52.362;6.588;2024-02-28T05:05:15;95.22;;;17.02;;
76765;SDS011;65707;52.362;6.588;2024-02-28T05:07:41;99.57;;;16.95;;
76765;SDS011;65707;52.362;6.588;2024-02-28T05:10:08;93.10;;;16.77;;
76765;SDS011;65707;52.362;6.588;2024-02-28T05:12:35;98.57;;;16.88;;
76765;SDS011;65707;52.362;6.588;2024-02-28T05:15:04;69.65;;;15.00;;
76765;SDS011;65707;52.362;6.588;2024-02-28T05:17:32;124.20;;;18.60;;
76765;SDS011;65707;52.362;6.588;2024-02-28T05:19:58;100.57;;;18.00;;
76765;SDS011;65707;52.362;6.588;2024-02-28T05:22:25;96.32;;;18.40;;
76765;SDS011;65707;52.362;6.588;2024-02-28T05:24:52;104.50;;;17.40;;
76765;SDS011;65707;52.362;6.588;2024-02-28T05:27:19;117.45;;;18.85;;
76765;SDS011;65707;52.362;6.588;2024-02-28T05:29:45;85.63;;;17.65;;
76765;SDS011;65707;52.362;6.588;2024-02-28T05:32:13;96.93;;;16.73;;
76765;SDS011;65707;52.362;6.588;2024-02-28T05:34:42;98.38;;;17.88;;
76765;SDS011;65707;52.362;6.588;2024-02-28T05:37:09;120.55;;;18.90;;
76765;SDS011;65707;52.362;6.588;2024-02-28T05:39:35;95.35;;;19.15;;
76765;SDS011;65707;52.362;6.588;2024-02-28T05:42:02;79.63;;;15.05;;
76765;SDS011;65707;52.362;6.588;2024-02-28T05:44:29;93.85;;;17.63;;
76765;SDS011;65707;52.362;6.588;2024-02-28T05:46:56;83.40;;;14.93;;
76765;SDS011;65707;52.362;6.588;2024-02-28T05:49:24;101.43;;;16.98;;
76765;SDS011;65707;52.362;6.588;2024-02-28T05:51:51;107.65;;;17.00;;
76765;SDS011;65707;52.362;6.588;2024-02-28T05:54:18;88.03;;;16.13;;
76765;SDS011;65707;52.362;6.588;2024-02-28T05:56:45;82.63;;;15.77;;
76765;SDS011;65707;52.362;6.588;2024-02-28T05:59:12;97.25;;;16.38;;
76765;SDS011;65707;52.362;6.588;2024-02-28T06:01:38;84.38;;;16.05;;
76765;SDS011;65707;52.362;6.588;2024-02-28T06:04:06;90.72;;;17.15;;
76765;SDS011;65707;52.362;6.588;2024-02-28T06:06:34;78.97;;;15.80;;
76765;SDS011;65707;52.362;6.588;2024-02-28T06:09:00;84.68;;;16.05;;
76765;SDS011;65707;52.362;6.588;2024-02-28T06:11:27;78.47;;;15.35;;
76765;SDS011;65707;52.362;6.588;2024-02-28T06:13:54;77.88;;;16.15;;
76765;SDS011;65707;52.362;6.588;2024-02-28T06:16:21;81.20;;;16.77;;
76765;SDS011;65707;52.362;6.588;2024-02-28T06:18:48;69.80;;;16.23;;
76765;SDS011;65707;52.362;6.588;2024-02-28T06:21:15;101.90;;;19.73;;
76765;SDS011;65707;52.362;6.588;2024-02-28T06:23:43;87.57;;;18.17;;
76765;SDS011;65707;52.362;6.588;2024-02-28T06:26:10;77.47;;;17.13;;
76765;SDS011;65707;52.362;6.588;2024-02-28T06:28:41;85.35;;;16.70;;
76765;SDS011;65707;52.362;6.588;2024-02-28T06:31:11;88.28;;;17.45;;
76765;SDS011;65707;52.362;6.588;2024-02-28T06:33:40;64.93;;;15.68;;
76765;SDS011;65707;52.362;6.588;2024-02-28T06:36:07;88.13;;;17.40;;
76765;SDS011;65707;52.362;6.588;2024-02-28T06:38:34;78.25;;;16.73;;
76765;SDS011;65707;52.362;6.588;2024-02-28T06:41:02;69.88;;;16.98;;
76765;SDS011;65707;52.362;6.588;2024-02-28T06:43:30;85.82;;;18.05;;
76765;SDS011;65707;52.362;6.588;2024-02-28T06:48:29;92.25;;;17.88;;
76765;SDS011;65707;52.362;6.588;2024-02-28T06:50:56;87.60;;;17.38;;
76765;SDS011;65707;52.362;6.588;2024-02-28T06:53:23;87.05;;;16.60;;
76765;SDS011;65707;52.362;6.588;2024-02-28T06:55:51;95.70;;;18.10;;
76765;SDS011;65707;52.362;6.588;2024-02-28T06:58:19;89.43;;;18.38;;
76765;SDS011;65707;52.362;6.588;2024-02-28T07:00:46;86.53;;;19.40;;
76765;SDS011;65707;52.362;6.588;2024-02-28T07:03:15;103.07;;;18.05;;
76765;SDS011;65707;52.362;6.588;2024-02-28T07:05:41;97.75;;;19.42;;
76765;SDS011;65707;52.362;6.588;2024-02-28T07:08:08;66.82;;;16.80;;
76765;SDS011;65707;52.362;6.588;2024-02-28T07:10:36;88.75;;;19.52;;
76765;SDS011;65707;52.362;6.588;2024-02-28T07:13:04;89.85;;;18.90;;
76765;SDS011;65707;52.362;6.588;2024-02-28T07:15:32;83.82;;;17.23;;
76765;SDS011;65707;52.362;6.588;2024-02-28T07:17:59;90.70;;;18.35;;
76765;SDS011;65707;52.362;6.588;2024-02-28T07:20:25;86.95;;;18.58;;
76765;SDS011;65707;52.362;6.588;2024-02-28T07:22:52;81.50;;;17.67;;
76765;SDS011;65707;52.362;6.588;2024-02-28T07:25:19;86.18;;;17.65;;
76765;SDS011;65707;52.362;6.588;2024-02-28T07:27:47;87.22;;;19.65;;
76765;SDS011;65707;52.362;6.588;2024-02-28T07:30:13;79.70;;;18.30;;
76765;SDS011;65707;52.362;6.588;2024-02-28T07:32:42;73.60;;;17.92;;
76765;SDS011;65707;52.362;6.588;2024-02-28T07:35:09;87.43;;;17.65;;
76765;SDS011;65707;52.362;6.588;2024-02-28T07:37:35;70.30;;;17.40;;
76765;SDS011;65707;52.362;6.588;2024-02-28T07:40:03;82.95;;;19.38;;
76765;SDS011;65707;52.362;6.588;2024-02-28T07:42:32;80.13;;;17.30;;
76765;SDS011;65707;52.362;6.588;2024-02-28T07:45:00;73.80;;;18.98;;
76765;SDS011;65707;52.362;6.588;2024-02-28T07:47:26;61.85;;;17.58;;
76765;SDS011;65707;52.362;6.588;2024-02-28T07:49:54;68.53;;;19.15;;
76765;SDS011;65707;52.362;6.588;2024-02-28T07:52:21;67.10;;;18.15;;
76765;SDS011;65707;52.362;6.588;2024-02-28T07:54:48;64.75;;;17.63;;
76765;SDS011;65707;52.362;6.588;2024-02-28T07:57:14;65.88;;;17.33;;
76765;SDS011;65707;52.362;6.588;2024-02-28T07:59:41;62.63;;;17.85;;
76765;SDS011;65707;52.362;6.588;2024-02-28T08:02:08;66.57;;;18.13;;
76765;SDS011;65707;52.362;6.588;2024-02-28T08:04:37;56.70;;;17.02;;
76765;SDS011;65707;52.362;6.588;2024-02-28T08:07:06;68.43;;;18.80;;
76765;SDS011;65707;52.362;6.588;2024-02-28T08:09:32;56.97;;;15.27;;
76765;SDS011;65707;52.362;6.588;2024-02-28T08:11:59;79.38;;;21.48;;
76765;SDS011;65707;52.362;6.588;2024-02-28T08:14:26;59.38;;;16.40;;
76765;SDS011;65707;52.362;6.588;2024-02-28T08:16:53;60.88;;;17.02;;
76765;SDS011;65707;52.362;6.588;2024-02-28T08:19:20;63.15;;;16.88;;
76765;SDS011;65707;52.362;6.588;2024-02-28T08:21:47;64.43;;;19.75;;
76765;SDS011;65707;52.362;6.588;2024-02-28T08:24:16;57.65;;;16.70;;
76765;SDS011;65707;52.362;6.588;2024-02-28T08:26:42;50.15;;;16.52;;
76765;SDS011;65707;52.362;6.588;2024-02-28T08:29:09;55.50;;;17.55;;
76765;SDS011;65707;52.362;6.588;2024-02-28T08:31:39;53.53;;;17.35;;
76765;SDS011;65707;52.362;6.588;2024-02-28T08:34:07;56.72;;;17.58;;
76765;SDS011;65707;52.362;6.588;2024-02-28T08:36:34;48.08;;;15.98;;
76765;SDS011;65707;52.362;6.588;2024-02-28T08:39:01;51.63;;;18.98;;
76765;SDS011;65707;52.362;6.588;2024-02-28T08:41:31;43.72;;;15.95;;
76765;SDS011;65707;52.362;6.588;2024-02-28T08:44:00;49.97;;;17.52;;
76765;SDS011;65707;52.362;6.588;2024-02-28T08:46:26;49.60;;;16.67;;
76765;SDS011;65707;52.362;6.588;2024-02-28T08:48:53;51.58;;;18.30;;
76765;SDS011;65707;52.362;6.588;2024-02-28T08:51:20;49.28;;;17.73;;
76765;SDS011;65707;52.362;6.588;2024-02-28T08:53:46;48.03;;;18.45;;
76765;SDS011;65707;52.362;6.588;2024-02-28T08:56:13;47.47;;;17.15;;
76765;SDS011;65707;52.362;6.588;2024-02-28T08:58:41;54.65;;;20.20;;
76765;SDS011;65707;52.362;6.588;2024-02-28T09:01:12;48.15;;;18.10;;
76765;SDS011;65707;52.362;6.588;2024-02-28T09:03:40;46.10;;;18.27;;
76765;SDS011;65707;52.362;6.588;2024-02-28T09:06:07;52.83;;;20.13;;
76765;SDS011;65707;52.362;6.588;2024-02-28T09:08:34;46.85;;;19.27;;
76765;SDS011;65707;52.362;6.588;2024-02-28T09:11:01;45.25;;;18.38;;
76765;SDS011;65707;52.362;6.588;2024-02-28T09:13:27;51.67;;;19.17;;
76765;SDS011;65707;52.362;6.588;2024-02-28T09:15:56;44.00;;;18.88;;
76765;SDS011;65707;52.362;6.588;2024-02-28T09:18:23;50.88;;;18.77;;
76765;SDS011;65707;52.362;6.588;2024-02-28T09:20:50;46.00;;;19.23;;
76765;SDS011;65707;52.362;6.588;2024-02-28T09:23:16;44.85;;;19.08;;
76765;SDS011;65707;52.362;6.588;2024-02-28T09:25:43;42.63;;;16.52;;
76765;SDS011;65707;52.362;6.588;2024-02-28T09:28:10;45.30;;;18.63;;
76765;SDS011;65707;52.362;6.588;2024-02-28T09:30:38;43.05;;;17.60;;
76765;SDS011;65707;52.362;6.588;2024-02-28T09:33:07;49.95;;;19.30;;
76765;SDS011;65707;52.362;6.588;2024-02-28T09:35:34;42.80;;;17.02;;
76765;SDS011;65707;52.362;6.588;2024-02-28T09:38:01;36.60;;;15.85;;
76765;SDS011;65707;52.362;6.588;2024-02-28T09:40:28;46.20;;;19.58;;
76765;SDS011;65707;52.362;6.588;2024-02-28T09:42:58;47.17;;;20.00;;
76765;SDS011;65707;52.362;6.588;2024-02-28T09:45:28;47.00;;;17.80;;
76765;SDS011;65707;52.362;6.588;2024-02-28T09:47:57;41.28;;;18.58;;
76765;SDS011;65707;52.362;6.588;2024-02-28T09:50:27;43.22;;;18.58;;
76765;SDS011;65707;52.362;6.588;2024-02-28T09:52:53;43.70;;;18.38;;
76765;SDS011;65707;52.362;6.588;2024-02-28T09:55:20;49.78;;;18.98;;
76765;SDS011;65707;52.362;6.588;2024-02-28T09:57:48;44.63;;;19.70;;
76765;SDS011;65707;52.362;6.588;2024-02-28T10:00:17;37.90;;;16.17;;
76765;SDS011;65707;52.362;6.588;2024-02-28T10:02:46;49.92;;;20.63;;
76765;SDS011;65707;52.362;6.588;2024-02-28T10:05:14;44.95;;;18.38;;
76765;SDS011;65707;52.362;6.588;2024-02-28T10:07:44;39.22;;;18.42;;
76765;SDS011;65707;52.362;6.588;2024-02-28T10:10:12;46.90;;;19.08;;
76765;SDS011;65707;52.362;6.588;2024-02-28T10:12:40;46.85;;;19.13;;
76765;SDS011;65707;52.362;6.588;2024-02-28T10:15:09;44.83;;;19.70;;
76765;SDS011;65707;52.362;6.588;2024-02-28T10:17:37;41.88;;;20.00;;
76765;SDS011;65707;52.362;6.588;2024-02-28T10:20:04;42.78;;;19.85;;
76765;SDS011;65707;52.362;6.588;2024-02-28T10:22:34;46.45;;;20.95;;
76765;SDS011;65707;52.362;6.588;2024-02-28T10:25:03;47.72;;;21.55;;
76765;SDS011;65707;52.362;6.588;2024-02-28T10:27:31;48.55;;;21.40;;
76765;SDS011;65707;52.362;6.588;2024-02-28T10:29:59;48.22;;;19.70;;
76765;SDS011;65707;52.362;6.588;2024-02-28T10:32:29;46.63;;;18.98;;
76765;SDS011;65707;52.362;6.588;2024-02-28T10:34:56;43.28;;;18.10;;
76765;SDS011;65707;52.362;6.588;2024-02-28T10:37:25;48.00;;;19.27;;
76765;SDS011;65707;52.362;6.588;2024-02-28T10:39:55;47.85;;;21.83;;
76765;SDS011;65707;52.362;6.588;2024-02-28T10:42:26;45.20;;;20.48;;
76765;SDS011;65707;52.362;6.588;2024-02-28T10:44:55;49.13;;;19.90;;
76765;SDS011;65707;52.362;6.588;2024-02-28T10:47:24;45.47;;;19.35;;
76765;SDS011;65707;52.362;6.588;2024-02-28T10:49:53;44.67;;;19.42;;
76765;SDS011;65707;52.362;6.588;2024-02-28T10:52:20;41.10;;;18.05;;
76765;SDS011;65707;52.362;6.588;2024-02-28T10:54:48;49.00;;;21.08;;
76765;SDS011;65707;52.362;6.588;2024-02-28T10:57:21;45.10;;;20.30;;
76765;SDS011;65707;52.362;6.588;2024-02-28T10:59:52;46.30;;;18.77;;
76765;SDS011;65707;52.362;6.588;2024-02-28T11:02:21;48.15;;;21.38;;
76765;SDS011;65707;52.362;6.588;2024-02-28T11:04:51;45.75;;;19.63;;
76765;SDS011;65707;52.362;6.588;2024-02-28T11:07:19;47.78;;;18.30;;
76765;SDS011;65707;52.362;6.588;2024-02-28T11:09:47;41.97;;;18.40;;
76765;SDS011;65707;52.362;6.588;2024-02-28T11:12:23;41.08;;;19.70;;
76765;SDS011;65707;52.362;6.588;2024-02-28T11:14:57;43.47;;;18.38;;
76765;SDS011;65707;52.362;6.588;2024-02-28T11:17:26;43.05;;;18.60;;
76765;SDS011;65707;52.362;6.588;2024-02-28T11:19:54;44.38;;;19.52;;
76765;SDS011;65707;52.362;6.588;2024-02-28T11:22:21;46.65;;;21.60;;
76765;SDS011;65707;52.362;6.588;2024-02-28T11:24:48;44.70;;;20.17;;
76765;SDS011;65707;52.362;6.588;2024-02-28T11:27:19;45.65;;;21.05;;
76765;SDS011;65707;52.362;6.588;2024-02-28T11:29:47;47.00;;;19.75;;
76765;SDS011;65707;52.362;6.588;2024-02-28T11:32:14;46.33;;;19.98;;
76765;SDS011;65707;52.362;6.588;2024-02-28T11:34:41;41.45;;;17.92;;
76765;SDS011;65707;52.362;6.588;2024-02-28T11:37:10;46.10;;;20.90;;
76765;SDS011;65707;52.362;6.588;2024-02-28T11:39:36;41.95;;;19.10;;
76765;SDS011;65707;52.362;6.588;2024-02-28T11:42:10;39.75;;;19.00;;
76765;SDS011;65707;52.362;6.588;2024-02-28T11:44:39;43.53;;;20.45;;
76765;SDS011;65707;52.362;6.588;2024-02-28T11:47:09;40.83;;;19.90;;
76765;SDS011;65707;52.362;6.588;2024-02-28T11:49:36;42.05;;;18.85;;
76765;SDS011;65707;52.362;6.588;2024-02-28T11:52:03;38.15;;;18.23;;
76765;SDS011;65707;52.362;6.588;2024-02-28T11:54:30;42.03;;;19.75;;
76765;SDS011;65707;52.362;6.588;2024-02-28T11:56:57;40.90;;;19.63;;
76765;SDS011;65707;52.362;6.588;2024-02-28T11:59:24;40.15;;;18.25;;
76765;SDS011;65707;52.362;6.588;2024-02-28T12:01:51;43.35;;;18.27;;
76765;SDS011;65707;52.362;6.588;2024-02-28T12:04:19;40.95;;;19.27;;
76765;SDS011;65707;52.362;6.588;2024-02-28T12:06:46;37.30;;;17.45;;
76765;SDS011;65707;52.362;6.588;2024-02-28T12:09:13;37.95;;;17.02;;
76765;SDS011;65707;52.362;6.588;2024-02-28T12:11:40;38.35;;;18.15;;
76765;SDS011;65707;52.362;6.588;2024-02-28T12:14:11;37.42;;;18.77;;
76765;SDS011;65707;52.362;6.588;2024-02-28T12:16:39;37.88;;;17.17;;
76765;SDS011;65707;52.362;6.588;2024-02-28T12:19:06;41.33;;;18.67;;
76765;SDS011;65707;52.362;6.588;2024-02-28T12:21:36;34.85;;;17.60;;
76765;SDS011;65707;52.362;6.588;2024-02-28T12:24:03;37.55;;;18.95;;
76765;SDS011;65707;52.362;6.588;2024-02-28T12:26:31;41.15;;;19.15;;
76765;SDS011;65707;52.362;6.588;2024-02-28T12:28:57;43.17;;;19.33;;
76765;SDS011;65707;52.362;6.588;2024-02-28T12:31:24;38.70;;;19.65;;
76765;SDS011;65707;52.362;6.588;2024-02-28T12:33:51;42.78;;;19.85;;
76765;SDS011;65707;52.362;6.588;2024-02-28T12:36:18;38.97;;;17.65;;
76765;SDS011;65707;52.362;6.588;2024-02-28T12:38:47;38.15;;;18.25;;
76765;SDS011;65707;52.362;6.588;2024-02-28T12:41:13;39.08;;;17.67;;
76765;SDS011;65707;52.362;6.588;2024-02-28T12:43:41;40.50;;;18.77;;
76765;SDS011;65707;52.362;6.588;2024-02-28T12:46:07;42.30;;;18.77;;
76765;SDS011;65707;52.362;6.588;2024-02-28T12:48:36;36.63;;;17.75;;
76765;SDS011;65707;52.362;6.588;2024-02-28T12:51:04;39.05;;;17.83;;
76765;SDS011;65707;52.362;6.588;2024-02-28T12:53:31;40.33;;;19.33;;
76765;SDS011;65707;52.362;6.588;2024-02-28T12:55:59;39.28;;;18.08;;
76765;SDS011;65707;52.362;6.588;2024-02-28T12:58:26;39.47;;;18.92;;
76765;SDS011;65707;52.362;6.588;2024-02-28T13:00:53;39.97;;;18.42;;
76765;SDS011;65707;52.362;6.588;2024-02-28T13:03:20;38.47;;;18.60;;
76765;SDS011;65707;52.362;6.588;2024-02-28T13:05:47;39.90;;;18.65;;
76765;SDS011;65707;52.362;6.588;2024-02-28T13:08:14;38.03;;;18.23;;
76765;SDS011;65707;52.362;6.588;2024-02-28T13:10:41;40.03;;;16.98;;
76765;SDS011;65707;52.362;6.588;2024-02-28T13:13:10;42.65;;;18.80;;
76765;SDS011;65707;52.362;6.588;2024-02-28T13:15:36;45.10;;;20.17;;
76765;SDS011;65707;52.362;6.588;2024-02-28T13:18:03;40.53;;;20.30;;
76765;SDS011;65707;52.362;6.588;2024-02-28T13:20:34;38.63;;;17.40;;
76765;SDS011;65707;52.362;6.588;2024-02-28T13:23:02;42.70;;;19.45;;
76765;SDS011;65707;52.362;6.588;2024-02-28T13:25:29;43.13;;;19.38;;
76765;SDS011;65707;52.362;6.588;2024-02-28T13:27:56;41.65;;;19.10;;
76765;SDS011;65707;52.362;6.588;2024-02-28T13:30:25;42.63;;;20.23;;
76765;SDS011;65707;52.362;6.588;2024-02-28T13:32:51;42.33;;;17.63;;
76765;SDS011;65707;52.362;6.588;2024-02-28T13:35:18;46.40;;;20.55;;
76765;SDS011;65707;52.362;6.588;2024-02-28T13:37:45;44.50;;;19.63;;
76765;SDS011;65707;52.362;6.588;2024-02-28T13:40:11;50.10;;;20.88;;
76765;SDS011;65707;52.362;6.588;2024-02-28T13:42:38;40.15;;;19.58;;
76765;SDS011;65707;52.362;6.588;2024-02-28T13:45:06;48.22;;;21.33;;
76765;SDS011;65707;52.362;6.588;2024-02-28T13:47:35;46.45;;;19.65;;
76765;SDS011;65707;52.362;6.588;2024-02-28T13:50:02;49.85;;;19.38;;
76765;SDS011;65707;52.362;6.588;2024-02-28T13:52:30;43.97;;;19.33;;
76765;SDS011;65707;52.362;6.588;2024-02-28T13:54:56;42.55;;;19.13;;
76765;SDS011;65707;52.362;6.588;2024-02-28T13:57:23;46.63;;;20.42;;
76765;SDS011;65707;52.362;6.588;2024-02-28T13:59:50;48.60;;;20.50;;
76765;SDS011;65707;52.362;6.588;2024-02-28T14:02:19;43.40;;;19.48;;
76765;SDS011;65707;52.362;6.588;2024-02-28T14:04:48;47.60;;;20.10;;
76765;SDS011;65707;52.362;6.588;2024-02-28T14:07:14;42.60;;;18.13;;
76765;SDS011;65707;52.362;6.588;2024-02-28T14:09:42;46.55;;;20.08;;
76765;SDS011;65707;52.362;6.588;2024-02-28T14:12:09;47.35;;;19.40;;
76765;SDS011;65707;52.362;6.588;2024-02-28T14:14:36;46.45;;;18.60;;
76765;SDS011;65707;52.362;6.588;2024-02-28T14:17:04;46.08;;;19.05;;
76765;SDS011;65707;52.362;6.588;2024-02-28T14:19:31;43.45;;;18.38;;
76765;SDS011;65707;52.362;6.588;2024-02-28T14:22:00;47.90;;;19.63;;
76765;SDS011;65707;52.362;6.588;2024-02-28T14:24:27;49.55;;;19.63;;